Airfield :







YOU CAN JOIN US ON...

 
LOGIN :

Register | Disclaimer

   EN    FR    IT 

 









Legend :    VFR   Marginal VFR   IFR   Intensive IFR   Very Intensive IFR
Visi :
Ceiling :
>= 8 km
>= 3000ft
5 to 8 km
1000 to 3000 ft
1500m to 5 km
500 to 1000 ft
800 to 1500m
200 to 500 ft
< 800m
< 200 ft
Symbols :   Thunderstorms  Fog  Heavy snow  Heavy precipitations  Wind > 20 kt







- Airport Elevation : 56 ft


KRKD - Knox County Regional

CURRENT METAR :
  • 150715Z AUTO 24006KT 1 1/4SM BR OVC001 16/16 A3007 RMK AO2

EXPIRED METARs :
  • 150702Z AUTO 23008KT 2SM BR OVC001 16/16 A3007 RMK AO2
  • 150656Z AUTO 23006KT 3SM BR OVC003 16/16 A3007 RMK AO2 SLP184 T01610161
  • 150631Z AUTO 24008KT 5SM BR OVC003 17/16 A3008 RMK AO2
  • 150556Z AUTO 22009KT 10SM OVC005 17/16 A3008 RMK AO2 SLP187 60000 T01670161 10167 20156 56014
  • 150456Z AUTO 21006KT 10SM BKN009 OVC014 16/16 A3010 RMK AO2 CIG 007V010 SLP191 T01610156 401670089

TAF KRKD
Valid from the 15 at 06:00 until the 16 at 06:00 UTC


150521Z 1506/1606 21009KT P6SM OVC009
FM150700 24005KT 1/2SM FG OVC002
FM151300 27008KT P6SM FEW040
No reported NOTAMs for that airfield.



MET'MAP, your aeronautical weather chart ! - Copyright ORBIFLY December 2007 - Disclaimer

ORBIFLY MET'MAP TEAM :

Programming & Development : Alexandra Zaïnal
Concept & Development : Baudouin d'Aumeries
Co-Development & Prog : Marc-Olivier Méhu
Technical & hardware support : Manuel Goepfert

Contact : metmap@orbifly.com




SOURCES & CREDITS :

   NOAA